createdAt,value
2019-03-26T00:01:58.203Z,102493.62
2019-03-26T00:08:05.059Z,102494.08
2019-03-26T00:14:12.571Z,102492.94
2019-03-26T00:20:19.397Z,102500.53
2019-03-26T00:26:26.008Z,102496.17
2019-03-26T00:32:32.731Z,102497.42
2019-03-26T00:38:39.454Z,102490.21
2019-03-26T00:44:46.023Z,102495.98
2019-03-26T00:50:52.802Z,102505.27
2019-03-26T00:56:59.715Z,102506.17
2019-03-26T01:03:07.356Z,102506.01
2019-03-26T01:09:14.055Z,102510.44
2019-03-26T01:15:20.662Z,102505.19
2019-03-26T01:21:27.429Z,102507.05
2019-03-26T01:27:34.256Z,102512.22
2019-03-26T01:33:40.776Z,102519.49
2019-03-26T01:39:47.351Z,102530.34
2019-03-26T01:45:54.104Z,102518.09
2019-03-26T01:52:00.908Z,102520.17
2019-03-26T01:58:07.772Z,102519.49
2019-03-26T02:04:14.428Z,102517.47
2019-03-26T02:10:21.070Z,102517.01
2019-03-26T02:16:27.919Z,102517.34
2019-03-26T02:22:34.567Z,102526.36
2019-03-26T02:28:41.142Z,102526.77
2019-03-26T02:34:48.024Z,102521.16
2019-03-26T02:40:54.548Z,102530.12
2019-03-26T02:47:01.165Z,102519.86
2019-03-26T02:53:09.046Z,102514.67
2019-03-26T02:59:15.667Z,102504.37
2019-03-26T03:05:35.196Z,102510.57
2019-03-26T03:11:30.604Z,102515.35
2019-03-26T03:17:37.146Z,102516.42
2019-03-26T03:23:43.663Z,102512.59
2019-03-26T03:29:50.211Z,102518.37
2019-03-26T03:35:56.760Z,102520.78
2019-03-26T03:42:03.470Z,102536.27
2019-03-26T03:48:10.690Z,102533.04
2019-03-26T03:54:17.881Z,102536.72
2019-03-26T04:00:41.310Z,102539.66
2019-03-26T04:06:47.925Z,102543.45
2019-03-26T04:12:54.464Z,102539.06
2019-03-26T04:19:01.005Z,102538.11
2019-03-26T04:25:07.563Z,102528.58
2019-03-26T04:31:14.053Z,102522.84
2019-03-26T04:37:20.683Z,102525.71
2019-03-26T04:43:27.277Z,102530.24
2019-03-26T04:49:33.855Z,102531.05
2019-03-26T04:55:40.409Z,102531.30
2019-03-26T05:01:46.891Z,102524.75
2019-03-26T05:07:56.755Z,102523.94
2019-03-26T05:14:03.312Z,102526.42
2019-03-26T05:20:09.892Z,102520.72
2019-03-26T05:26:16.420Z,102523.09
2019-03-26T05:32:23.007Z,102519.22
2019-03-26T05:38:29.621Z,102520.10
2019-03-26T05:44:37.458Z,102524.45
2019-03-26T05:50:43.990Z,102531.08
2019-03-26T05:56:50.536Z,102532.13
2019-03-26T06:02:57.081Z,102532.41
2019-03-26T06:09:03.970Z,102536.83
2019-03-26T06:15:11.372Z,102535.21
2019-03-26T06:21:17.867Z,102550.25
2019-03-26T06:27:24.403Z,102560.03
2019-03-26T06:33:31.000Z,102555.07
2019-03-26T06:39:37.540Z,102565.34
2019-03-26T06:45:44.086Z,102562.73
2019-03-26T06:51:50.681Z,102563.93
2019-03-26T06:57:57.315Z,102583.18
2019-03-26T07:04:04.062Z,102580.52
2019-03-26T07:10:11.329Z,102574.14
2019-03-26T07:16:17.829Z,102585.37
2019-03-26T07:22:24.380Z,102583.04
2019-03-26T07:28:30.945Z,102594.09
2019-03-26T07:34:37.637Z,102602.48
2019-03-26T07:40:44.276Z,102611.25
2019-03-26T07:46:50.945Z,102612.83
2019-03-26T07:52:58.017Z,102612.51
2019-03-26T07:59:04.562Z,102611.88
2019-03-26T08:05:12.077Z,102624.48
2019-03-26T08:11:18.677Z,102609.97
2019-03-26T08:17:25.264Z,102621.53
2019-03-26T08:23:32.112Z,102633.94
2019-03-26T08:29:38.737Z,102634.91
2019-03-26T08:35:45.339Z,102622.52
2019-03-26T08:41:51.970Z,102616.34
2019-03-26T08:47:58.494Z,102610.78
2019-03-26T08:54:05.155Z,102606.02
2019-03-26T09:00:12.361Z,102604.05
2019-03-26T09:06:19.031Z,102606.02
2019-03-26T09:12:25.599Z,102616.61
2019-03-26T09:18:32.118Z,102610.34
2019-03-26T09:24:38.661Z,102607.42
2019-03-26T09:30:45.238Z,102617.86
2019-03-26T09:36:51.886Z,102625.59
2019-03-26T09:42:58.441Z,102625.33
2019-03-26T09:49:05.078Z,102625.17
2019-03-26T09:55:12.196Z,102634.34
2019-03-26T10:01:18.700Z,102642.70
2019-03-26T10:07:25.214Z,102660.63
2019-03-26T10:13:31.938Z,102652.02
2019-03-26T10:19:38.570Z,102643.75
2019-03-26T10:25:45.079Z,102638.89
2019-03-26T10:31:51.917Z,102624.81
2019-03-26T10:37:58.685Z,102615.52
2019-03-26T10:44:05.290Z,102610.03
2019-03-26T10:50:11.984Z,102604.64
2019-03-26T10:56:18.531Z,102604.86
2019-03-26T11:02:25.056Z,102619.00
2019-03-26T11:08:31.630Z,102607.98
2019-03-26T11:14:38.226Z,102595.44
2019-03-26T11:20:44.781Z,102597.14
2019-03-26T11:26:51.702Z,102594.07
2019-03-26T11:32:58.391Z,102582.72
2019-03-26T11:39:06.242Z,102578.45
2019-03-26T11:45:13.884Z,102575.87
2019-03-26T11:51:20.408Z,102568.81
2019-03-26T11:57:26.985Z,102569.88
2019-03-26T12:03:33.543Z,102571.33
2019-03-26T12:09:46.110Z,102561.03
2019-03-26T12:15:48.425Z,102556.08
2019-03-26T12:21:54.961Z,102548.11
2019-03-26T12:28:01.571Z,102545.06
2019-03-26T12:34:08.341Z,102555.40
2019-03-26T12:40:15.232Z,102557.48
2019-03-26T12:46:21.779Z,102568.87
2019-03-26T12:52:30.134Z,102558.72
2019-03-26T12:58:36.894Z,102570.83
2019-03-26T13:04:43.406Z,102569.23
2019-03-26T13:10:53.845Z,102558.27
2019-03-26T13:16:58.568Z,102561.11
2019-03-26T13:23:05.327Z,102553.69
2019-03-26T13:29:11.892Z,102553.81
2019-03-26T13:35:18.655Z,102550.47
2019-03-26T13:41:25.163Z,102539.50
2019-03-26T13:47:31.786Z,102532.44
2019-03-26T13:53:38.377Z,102534.25
2019-03-26T13:59:44.955Z,102534.30
2019-03-26T14:05:51.553Z,102538.34
2019-03-26T14:11:58.142Z,102543.16
2019-03-26T14:18:05.014Z,102534.94
2019-03-26T14:24:13.321Z,102538.63
2019-03-26T14:30:35.259Z,102536.33
2019-03-26T14:36:42.057Z,102533.01
2019-03-26T14:42:48.855Z,102541.05
2019-03-26T14:48:55.455Z,102533.31
2019-03-26T14:55:02.553Z,102536.33
2019-03-26T15:01:09.264Z,102536.14
2019-03-26T15:07:16.079Z,102518.64
2019-03-26T15:13:22.663Z,102522.53
2019-03-26T15:19:29.245Z,102523.27
2019-03-26T15:25:35.914Z,102517.92
2019-03-26T15:31:42.556Z,102508.49
2019-03-26T15:37:49.152Z,102508.91
2019-03-26T15:43:55.773Z,102518.13
2019-03-26T15:50:02.412Z,102504.87
2019-03-26T15:56:09.311Z,102501.36
2019-03-26T16:02:16.019Z,102505.52
2019-03-26T16:08:22.591Z,102512.06
2019-03-26T16:14:29.293Z,102501.25
2019-03-26T16:20:35.907Z,102499.94
2019-03-26T16:26:42.458Z,102495.42
2019-03-26T16:32:49.079Z,102505.40
2019-03-26T16:38:55.702Z,102504.64
2019-03-26T16:45:02.237Z,102510.79
2019-03-26T16:51:09.776Z,102523.08
2019-03-26T16:57:17.767Z,102521.77
2019-03-26T17:03:31.133Z,102522.59
2019-03-26T17:09:33.061Z,102524.58
2019-03-26T17:15:39.775Z,102519.03
2019-03-26T17:21:46.407Z,102519.24
2019-03-26T17:27:53.080Z,102517.38
2019-03-26T17:33:59.772Z,102514.73
2019-03-26T17:40:06.806Z,102517.05
2019-03-26T17:46:13.560Z,102514.86
2019-03-26T17:52:22.617Z,102517.16
2019-03-26T17:58:29.780Z,102503.12
2019-03-26T18:04:37.000Z,102511.11
2019-03-26T18:10:43.682Z,102515.80
2019-03-26T18:16:50.503Z,102519.26
2019-03-26T18:22:57.301Z,102530.61
2019-03-26T18:29:03.958Z,102537.70
2019-03-26T18:35:10.743Z,102536.38
2019-03-26T18:41:17.308Z,102538.23
2019-03-26T18:47:23.996Z,102539.02
2019-03-26T18:53:32.946Z,102545.59
2019-03-26T18:59:39.510Z,102550.87
2019-03-26T19:05:46.053Z,102550.41
2019-03-26T19:11:52.799Z,102553.81
2019-03-26T19:18:07.411Z,102558.46
2019-03-26T19:24:13.997Z,102563.61
2019-03-26T19:30:20.559Z,102565.61
2019-03-26T19:36:27.203Z,102568.67
2019-03-26T19:42:33.890Z,102575.33
2019-03-26T19:48:40.480Z,102581.79
2019-03-26T19:54:47.084Z,102590.93
2019-03-26T20:00:53.844Z,102602.08
2019-03-26T20:07:00.435Z,102611.67
2019-03-26T20:13:07.293Z,102609.04
2019-03-26T20:19:14.473Z,102609.91
2019-03-26T20:25:21.197Z,102614.68
2019-03-26T20:31:27.896Z,102609.47
2019-03-26T20:37:34.552Z,102603.21
2019-03-26T20:43:43.536Z,102610.66
2019-03-26T20:49:50.303Z,102621.26
2019-03-26T20:55:56.933Z,102620.19
2019-03-26T21:02:03.494Z,102614.59
2019-03-26T21:08:10.124Z,102614.84
2019-03-26T21:14:16.804Z,102620.05
2019-03-26T21:20:23.512Z,102630.14
2019-03-26T21:26:30.156Z,102629.61
2019-03-26T21:32:36.734Z,102622.59
2019-03-26T21:38:43.414Z,102629.13
2019-03-26T21:44:50.071Z,102621.88
2019-03-26T21:50:56.633Z,102632.83
2019-03-26T21:57:03.358Z,102638.33
2019-03-26T22:03:10.071Z,102639.96
2019-03-26T22:09:16.621Z,102637.39
2019-03-26T22:15:23.314Z,102639.19
2019-03-26T22:21:29.823Z,102637.88
2019-03-26T22:27:36.372Z,102636.13
2019-03-26T22:33:42.935Z,102635.56
2019-03-26T22:39:49.494Z,102620.44
2019-03-26T22:45:56.070Z,102631.39
2019-03-26T22:52:02.659Z,102639.11
2019-03-26T22:58:09.196Z,102627.50
2019-03-26T23:04:15.790Z,102627.64
2019-03-26T23:10:22.603Z,102628.58
2019-03-26T23:16:29.312Z,102630.34
2019-03-26T23:22:36.002Z,102635.69
2019-03-26T23:28:42.973Z,102645.48
2019-03-26T23:34:50.969Z,102642.15
2019-03-26T23:40:57.897Z,102653.60
